Time;durP1;ratioP1;P1;durP2;ratioP2;P2;SDS_P1;SDS_P2;PMS_P1;PMS_P2;Temp;Humidity;BMP_temperature;BMP_pressure;BME280_temperature;BME280_humidity;BME280_pressure;Samples;Min_cycle;Max_cycle;Signal;HPM_P1;HPM_P2
2023/09/01 00:01:18;;;;;;;4.93;4.53;;;15.50;99.90;;;;;;5008902;28;20455;-63
2023/09/01 00:03:45;;;;;;;5.70;5.20;;;15.40;99.90;;;;;;5009414;28;20449;-63
2023/09/01 00:06:13;;;;;;;5.20;4.70;;;15.40;99.90;;;;;;4999136;28;20451;-63
2023/09/01 00:08:40;;;;;;;6.23;4.43;;;15.30;99.90;;;;;;4989046;28;21078;-63
2023/09/01 00:11:06;;;;;;;7.20;5.17;;;15.40;99.90;;;;;;4989275;28;20465;-63
2023/09/01 00:13:33;;;;;;;4.93;4.50;;;15.30;99.90;;;;;;4989236;28;20472;-63
2023/09/01 00:16:02;;;;;;;5.23;4.80;;;15.30;99.90;;;;;;4988253;28;20452;-63
2023/09/01 00:18:30;;;;;;;6.73;5.00;;;15.30;99.90;;;;;;4989322;28;20471;-63
2023/09/01 00:21:00;;;;;;;5.23;4.80;;;15.30;99.90;;;;;;4989373;28;21285;-63
2023/09/01 00:23:27;;;;;;;5.17;4.77;;;15.30;99.90;;;;;;4988949;28;20456;-63
2023/09/01 00:25:55;;;;;;;4.87;4.47;;;15.30;99.90;;;;;;4988589;28;20971;-63
2023/09/01 00:28:22;;;;;;;5.00;4.50;;;15.30;99.90;;;;;;4988728;28;20529;-63
2023/09/01 00:30:53;;;;;;;6.20;4.97;;;15.30;99.90;;;;;;4989160;28;20533;-63
2023/09/01 00:33:24;;;;;;;7.00;5.90;;;15.30;99.90;;;;;;4987957;28;20905;-63
2023/09/01 00:35:52;;;;;;;4.90;4.60;;;15.30;99.90;;;;;;4988487;28;20457;-63
2023/09/01 00:38:19;;;;;;;4.50;4.10;;;15.40;99.90;;;;;;4990309;28;20475;-63
2023/09/01 00:40:47;;;;;;;4.67;4.27;;;15.40;99.90;;;;;;4992925;28;20651;-63
2023/09/01 00:43:14;;;;;;;7.50;5.73;;;15.40;99.90;;;;;;4992738;28;20494;-63
2023/09/01 00:45:42;;;;;;;6.57;4.37;;;15.40;99.90;;;;;;4992196;28;21142;-63
2023/09/01 00:48:09;;;;;;;7.90;4.50;;;15.40;99.90;;;;;;4991047;28;20487;-63
2023/09/01 00:50:37;;;;;;;5.67;5.10;;;15.40;99.90;;;;;;4992640;28;20534;-63
2023/09/01 00:53:05;;;;;;;7.70;5.23;;;15.40;99.90;;;;;;4992654;28;20482;-63
2023/09/01 00:55:32;;;;;;;5.53;5.03;;;15.40;99.90;;;;;;4992396;28;20527;-63
2023/09/01 00:58:00;;;;;;;5.67;4.80;;;15.30;99.90;;;;;;4991587;28;21077;-63
2023/09/01 01:00:28;;;;;;;6.70;5.80;;;15.40;99.90;;;;;;4992183;28;21041;-63
2023/09/01 01:02:55;;;;;;;5.70;4.70;;;15.40;99.90;;;;;;4992380;28;20462;-63
2023/09/01 01:05:27;;;;;;;10.97;6.70;;;15.40;99.90;;;;;;4994126;28;20472;-63
2023/09/01 01:08:02;;;;;;;6.10;5.60;;;15.40;99.90;;;;;;5011031;28;20473;-63
2023/09/01 01:10:38;;;;;;;6.43;5.30;;;15.30;99.90;;;;;;5011894;28;20473;-63
2023/09/01 01:13:10;;;;;;;5.33;4.80;;;15.30;99.90;;;;;;5011764;28;20452;-63
2023/09/01 01:15:39;;;;;;;6.60;5.30;;;15.30;99.90;;;;;;5011519;28;20472;-63
2023/09/01 01:18:11;;;;;;;5.33;4.57;;;15.30;99.90;;;;;;5011075;28;20837;-62
2023/09/01 01:20:41;;;;;;;7.30;5.60;;;15.40;99.90;;;;;;5012036;28;20589;-63
2023/09/01 01:23:11;;;;;;;7.40;5.63;;;15.30;99.90;;;;;;5011855;28;20452;-63
2023/09/01 01:25:45;;;;;;;10.50;5.83;;;15.30;99.90;;;;;;5011687;28;20450;-62
2023/09/01 01:28:12;;;;;;;7.70;6.07;;;15.30;99.90;;;;;;5010498;28;20557;-63
2023/09/01 01:30:39;;;;;;;6.97;6.17;;;15.30;99.90;;;;;;4991414;28;20819;-62
2023/09/01 01:33:22;;;;;;;5.73;5.07;;;15.30;99.90;;;;;;4990326;28;20541;-63
2023/09/01 01:35:57;;;;;;;10.27;6.73;;;15.30;99.90;;;;;;4991660;28;20454;-63
2023/09/01 01:38:28;;;;;;;7.43;5.93;;;15.30;99.90;;;;;;4991620;28;20471;-63
2023/09/01 01:41:04;;;;;;;7.23;5.57;;;15.30;99.90;;;;;;4991564;28;20501;-63
2023/09/01 01:43:32;;;;;;;6.57;6.00;;;15.20;99.90;;;;;;4991638;28;20454;-63
2023/09/01 01:45:59;;;;;;;6.70;5.97;;;15.20;99.90;;;;;;4990960;28;20793;-62
2023/09/01 01:48:26;;;;;;;7.73;6.83;;;15.20;99.90;;;;;;4991791;28;20491;-62
2023/09/01 01:50:55;;;;;;;6.17;5.60;;;15.20;99.90;;;;;;4990625;28;20500;-63
2023/09/01 01:53:22;;;;;;;9.33;5.97;;;15.20;99.90;;;;;;4991337;28;21225;-62
2023/09/01 01:55:50;;;;;;;6.57;5.93;;;15.20;99.90;;;;;;4991328;28;20447;-63
2023/09/01 01:58:17;;;;;;;5.47;4.97;;;15.20;99.90;;;;;;4991108;28;20476;-63
2023/09/01 02:00:44;;;;;;;7.10;6.50;;;15.10;99.90;;;;;;4991198;28;20499;-63
2023/09/01 02:03:11;;;;;;;7.27;6.60;;;15.20;99.90;;;;;;4991739;28;20836;-63
2023/09/01 02:05:38;;;;;;;5.70;5.20;;;15.20;99.90;;;;;;4991089;28;20462;-63
2023/09/01 02:08:05;;;;;;;9.23;6.80;;;15.10;99.90;;;;;;4990636;28;20492;-63
2023/09/01 02:10:33;;;;;;;7.10;6.30;;;15.10;99.90;;;;;;4991238;28;20450;-63
2023/09/01 02:13:03;;;;;;;7.23;6.47;;;15.20;99.90;;;;;;4991153;28;20454;-62
2023/09/01 02:15:31;;;;;;;5.63;5.03;;;15.10;99.90;;;;;;4991126;28;20545;-63
2023/09/01 02:17:58;;;;;;;8.17;5.97;;;15.10;99.90;;;;;;4990311;28;20481;-63
2023/09/01 02:20:26;;;;;;;5.77;5.33;;;15.10;99.90;;;;;;4990694;28;20494;-63
2023/09/01 02:22:54;;;;;;;7.57;5.57;;;15.10;99.90;;;;;;4990934;28;21193;-63
2023/09/01 02:25:22;;;;;;;6.90;6.30;;;15.00;99.90;;;;;;4990992;28;20464;-63
2023/09/01 02:27:48;;;;;;;8.13;6.43;;;15.00;99.90;;;;;;4989859;28;20479;-63
2023/09/01 02:30:17;;;;;;;9.93;7.10;;;15.10;99.90;;;;;;4990592;28;20447;-63
2023/09/01 02:32:44;;;;;;;6.57;5.90;;;15.10;99.90;;;;;;4989864;28;20447;-63
2023/09/01 02:35:11;;;;;;;6.70;5.83;;;15.00;99.90;;;;;;4990699;28;20548;-63
2023/09/01 02:37:38;;;;;;;6.77;6.07;;;15.00;99.90;;;;;;4989860;28;20506;-63
2023/09/01 02:40:10;;;;;;;7.50;6.07;;;15.00;99.90;;;;;;4990831;28;20492;-63
2023/09/01 02:42:39;;;;;;;8.30;7.00;;;15.00;99.90;;;;;;4990515;28;20490;-63
2023/09/01 02:45:07;;;;;;;7.40;6.70;;;15.00;99.90;;;;;;4991098;28;20452;-63
2023/09/01 02:47:35;;;;;;;6.67;6.07;;;15.00;99.90;;;;;;4989776;28;20577;-62
2023/09/01 02:50:02;;;;;;;6.33;5.83;;;15.10;99.90;;;;;;4990725;28;20522;-63
2023/09/01 02:52:29;;;;;;;6.50;5.90;;;15.00;99.90;;;;;;4990415;28;20466;-62
2023/09/01 02:54:56;;;;;;;9.77;5.90;;;15.00;99.90;;;;;;4990218;28;20462;-62
2023/09/01 02:57:23;;;;;;;7.20;5.93;;;15.00;99.90;;;;;;4989224;28;20512;-62
2023/09/01 02:59:52;;;;;;;7.07;6.47;;;15.00;99.90;;;;;;4990144;28;20455;-62
2023/09/01 03:02:19;;;;;;;6.63;6.03;;;15.00;99.90;;;;;;4989298;28;20541;-62
2023/09/01 03:04:48;;;;;;;7.40;5.93;;;15.10;99.90;;;;;;4990243;28;20455;-62
2023/09/01 03:07:15;;;;;;;8.37;6.40;;;15.10;99.90;;;;;;4988806;28;20995;-62
2023/09/01 03:09:42;;;;;;;6.50;5.97;;;15.00;99.90;;;;;;4990161;28;21138;-62
2023/09/01 03:12:09;;;;;;;7.27;6.50;;;15.00;99.90;;;;;;4990246;28;20459;-62
2023/09/01 03:14:36;;;;;;;7.23;6.37;;;15.00;99.90;;;;;;4986677;28;20460;-62
2023/09/01 03:17:04;;;;;;;7.83;7.07;;;15.10;99.90;;;;;;4989262;28;20482;-62
2023/09/01 03:19:31;;;;;;;8.10;6.30;;;15.10;99.90;;;;;;4989735;28;20495;-62
2023/09/01 03:22:00;;;;;;;6.73;5.90;;;15.10;99.90;;;;;;4989640;28;20486;-62
2023/09/01 03:24:27;;;;;;;9.27;6.90;;;15.10;99.90;;;;;;4989922;28;20831;-62
2023/09/01 03:26:54;;;;;;;7.37;6.77;;;15.10;99.90;;;;;;4989008;28;20529;-62
2023/09/01 03:29:20;;;;;;;8.10;6.47;;;15.10;99.90;;;;;;4989582;28;20458;-62
2023/09/01 03:31:48;;;;;;;7.07;6.57;;;15.20;99.90;;;;;;4989636;28;20452;-62
2023/09/01 03:34:15;;;;;;;7.23;5.83;;;15.10;99.90;;;;;;4988649;28;20505;-62
2023/09/01 03:36:41;;;;;;;7.73;6.97;;;15.20;99.90;;;;;;4989120;28;20547;-63
2023/09/01 03:39:09;;;;;;;8.90;6.23;;;15.20;99.90;;;;;;4989828;28;20841;-62
2023/09/01 03:41:37;;;;;;;13.07;7.47;;;15.20;99.90;;;;;;4989405;28;20499;-62
2023/09/01 03:44:04;;;;;;;7.93;7.27;;;15.20;99.90;;;;;;4989492;28;20450;-62
2023/09/01 03:46:31;;;;;;;8.03;7.23;;;15.20;99.90;;;;;;4988511;28;20453;-62
2023/09/01 03:48:58;;;;;;;8.37;7.57;;;15.20;99.90;;;;;;4989185;28;20518;-62
2023/09/01 03:51:25;;;;;;;7.90;7.10;;;15.20;99.90;;;;;;4989603;28;20474;-62
2023/09/01 03:53:51;;;;;;;8.70;7.80;;;15.20;99.90;;;;;;4989613;28;20450;-62
2023/09/01 03:56:20;;;;;;;8.20;6.93;;;15.20;99.90;;;;;;4988562;28;20458;-62
2023/09/01 03:58:47;;;;;;;8.10;7.40;;;15.20;99.90;;;;;;4989108;28;20732;-62
2023/09/01 04:01:14;;;;;;;7.93;7.13;;;15.30;99.90;;;;;;4989031;28;20573;-62
2023/09/01 04:03:42;;;;;;;8.70;6.93;;;15.30;99.90;;;;;;4989481;28;20461;-62
2023/09/01 04:06:09;;;;;;;8.30;7.50;;;15.20;99.90;;;;;;4988831;28;20454;-62
2023/09/01 04:08:37;;;;;;;8.30;7.27;;;15.20;99.90;;;;;;4989313;28;20471;-62
2023/09/01 04:11:04;;;;;;;13.53;9.00;;;15.20;99.90;;;;;;4988995;28;20486;-62
2023/09/01 04:13:33;;;;;;;7.43;6.73;;;15.20;99.90;;;;;;4988824;28;20543;-62
2023/09/01 04:16:00;;;;;;;7.90;7.30;;;15.20;99.90;;;;;;4988206;28;20450;-62
2023/09/01 04:18:27;;;;;;;8.23;7.57;;;15.30;99.90;;;;;;4989052;28;20476;-63
2023/09/01 04:20:55;;;;;;;8.53;7.83;;;15.30;99.90;;;;;;4988856;28;20492;-62
2023/09/01 04:23:22;;;;;;;10.63;8.30;;;15.30;99.90;;;;;;4988810;28;20538;-63
2023/09/01 04:25:50;;;;;;;9.70;7.20;;;15.30;99.90;;;;;;4988750;28;20546;-63
2023/09/01 04:28:17;;;;;;;8.73;7.80;;;15.30;99.90;;;;;;4988706;28;20475;-63
2023/09/01 04:30:45;;;;;;;8.50;7.70;;;15.30;99.90;;;;;;4989312;28;20447;-63
2023/09/01 04:33:13;;;;;;;11.20;9.10;;;15.30;99.90;;;;;;4988395;28;20462;-63
2023/09/01 04:35:40;;;;;;;11.10;8.53;;;15.30;99.90;;;;;;4989133;28;20451;-63
2023/09/01 04:38:07;;;;;;;9.33;8.53;;;15.30;99.90;;;;;;4988127;28;21000;-63
2023/09/01 04:40:34;;;;;;;9.57;7.60;;;15.30;99.90;;;;;;4988752;28;20497;-63
2023/09/01 04:43:01;;;;;;;8.20;7.40;;;15.30;99.90;;;;;;4989156;28;20542;-63
2023/09/01 04:45:27;;;;;;;7.93;6.93;;;15.30;99.90;;;;;;4988807;28;20456;-63
2023/09/01 04:47:55;;;;;;;8.70;7.77;;;15.30;99.90;;;;;;4988028;28;20491;-62
2023/09/01 04:50:22;;;;;;;8.60;7.80;;;15.30;99.90;;;;;;4988787;28;20462;-63
2023/09/01 04:52:49;;;;;;;8.93;7.90;;;15.30;99.90;;;;;;4988695;28;20489;-63
2023/09/01 04:55:16;;;;;;;8.50;7.57;;;15.30;99.90;;;;;;4988714;28;20451;-63
2023/09/01 04:57:43;;;;;;;11.57;10.40;;;15.30;99.90;;;;;;4988133;28;20466;-63
2023/09/01 05:00:16;;;;;;;7.53;6.80;;;15.40;99.90;;;;;;4988824;28;20453;-63
2023/09/01 05:02:44;;;;;;;10.00;7.40;;;15.40;99.90;;;;;;4988790;28;20954;-63
2023/09/01 05:05:13;;;;;;;10.10;9.07;;;15.40;99.90;;;;;;4988807;28;20460;-63
2023/09/01 05:07:40;;;;;;;9.73;7.80;;;15.40;99.90;;;;;;4987697;28;20932;-63
2023/09/01 05:10:08;;;;;;;8.00;7.30;;;15.40;99.90;;;;;;4988732;28;20453;-63
2023/09/01 05:12:35;;;;;;;9.17;7.50;;;15.40;99.90;;;;;;4988479;28;20454;-63
2023/09/01 05:15:03;;;;;;;8.67;7.80;;;15.40;99.90;;;;;;4988777;28;20452;-63
2023/09/01 05:17:30;;;;;;;8.50;7.80;;;15.40;99.90;;;;;;4987667;28;20471;-63
2023/09/01 05:19:57;;;;;;;9.30;8.33;;;15.40;99.90;;;;;;4988449;28;20539;-63
2023/09/01 05:22:25;;;;;;;8.03;7.17;;;15.40;99.90;;;;;;4988566;28;20503;-63
2023/09/01 05:24:53;;;;;;;8.47;7.70;;;15.50;99.90;;;;;;4989708;28;20460;-63
2023/09/01 05:27:20;;;;;;;9.47;8.47;;;15.40;99.90;;;;;;4991248;28;20478;-64
2023/09/01 05:29:48;;;;;;;11.77;8.00;;;15.50;99.90;;;;;;4992282;28;20539;-63
2023/09/01 05:32:15;;;;;;;10.30;8.97;;;15.50;99.90;;;;;;4991018;28;20501;-64
2023/09/01 05:34:42;;;;;;;8.77;7.87;;;15.50;99.90;;;;;;4991881;28;20461;-64
2023/09/01 05:37:11;;;;;;;10.50;8.27;;;15.50;99.90;;;;;;4991156;28;20475;-63
2023/09/01 05:39:40;;;;;;;9.57;8.47;;;15.50;99.90;;;;;;4991824;28;20570;-64
2023/09/01 05:42:07;;;;;;;8.80;8.00;;;15.50;99.90;;;;;;4991453;28;20488;-64
2023/09/01 05:44:35;;;;;;;7.33;6.63;;;15.60;99.90;;;;;;4991471;28;20542;-64
2023/09/01 05:47:03;;;;;;;7.30;6.70;;;15.60;99.90;;;;;;4990762;28;20856;-63
2023/09/01 05:49:31;;;;;;;8.20;7.30;;;15.60;99.90;;;;;;4991428;28;21095;-64
2023/09/01 05:51:58;;;;;;;8.17;7.37;;;15.60;99.90;;;;;;4991592;28;20948;-64
2023/09/01 05:54:24;;;;;;;8.50;7.70;;;15.60;99.90;;;;;;4991593;28;20455;-64
2023/09/01 05:56:53;;;;;;;6.60;6.00;;;15.60;99.90;;;;;;4990931;28;20968;-64
2023/09/01 05:59:20;;;;;;;8.13;6.40;;;15.60;99.90;;;;;;4991627;28;20963;-64
2023/09/01 06:01:47;;;;;;;6.90;6.30;;;15.60;99.90;;;;;;4991538;28;20501;-64
2023/09/01 06:04:14;;;;;;;6.37;5.77;;;15.60;99.90;;;;;;4991426;28;20833;-64
2023/09/01 06:06:41;;;;;;;7.93;6.20;;;15.60;99.90;;;;;;4990409;28;20468;-64
2023/09/01 06:09:08;;;;;;;9.60;7.33;;;15.60;99.90;;;;;;4991159;28;20462;-64
2023/09/01 06:11:36;;;;;;;6.50;6.00;;;15.60;99.90;;;;;;4990965;28;20455;-64
2023/09/01 06:14:05;;;;;;;12.77;7.60;;;15.70;99.90;;;;;;4990935;28;20464;-64
2023/09/01 06:16:32;;;;;;;11.53;7.23;;;15.70;99.90;;;;;;4990280;28;20444;-64
2023/09/01 06:19:00;;;;;;;7.27;6.67;;;15.70;99.90;;;;;;4990971;28;20480;-64
2023/09/01 06:21:27;;;;;;;7.20;6.50;;;15.70;99.90;;;;;;4991131;28;20491;-64
2023/09/01 06:23:54;;;;;;;7.23;6.63;;;15.80;99.90;;;;;;4991081;28;20455;-64
2023/09/01 06:26:21;;;;;;;25.13;11.10;;;15.80;99.90;;;;;;4990227;28;20546;-64
2023/09/01 06:28:48;;;;;;;41.47;15.07;;;15.80;99.90;;;;;;4990953;28;21245;-64
2023/09/01 06:31:17;;;;;;;9.07;6.80;;;15.80;99.90;;;;;;4990748;28;20537;-63
2023/09/01 06:33:46;;;;;;;9.33;7.10;;;15.90;99.90;;;;;;4989825;28;21003;-64
2023/09/01 06:36:13;;;;;;;9.97;7.23;;;15.90;99.90;;;;;;4989676;28;20452;-64
2023/09/01 06:38:41;;;;;;;10.53;6.90;;;15.90;99.90;;;;;;4990934;28;20469;-63
2023/09/01 06:41:08;;;;;;;41.80;14.27;;;15.90;99.90;;;;;;4990707;28;20496;-64
2023/09/01 06:43:35;;;;;;;38.00;15.40;;;15.90;99.90;;;;;;4990697;28;20543;-63
2023/09/01 06:46:02;;;;;;;59.53;18.80;;;15.90;99.90;;;;;;4989685;28;20957;-63
2023/09/01 06:48:31;;;;;;;13.80;10.17;;;16.00;99.90;;;;;;4990401;28;20481;-64
2023/09/01 06:50:59;;;;;;;18.77;10.00;;;16.00;99.90;;;;;;4991031;28;20451;-64
2023/09/01 06:53:26;;;;;;;7.60;6.10;;;16.00;99.90;;;;;;4990602;28;20457;-63
2023/09/01 06:55:53;;;;;;;15.07;8.50;;;16.00;99.90;;;;;;4989940;28;20544;-63
2023/09/01 06:58:19;;;;;;;14.00;8.03;;;16.00;99.90;;;;;;4990132;28;20483;-64
2023/09/01 07:00:46;;;;;;;7.03;6.33;;;16.10;99.90;;;;;;4990526;28;20455;-63
2023/09/01 07:03:13;;;;;;;5.30;4.70;;;16.20;99.90;;;;;;4990409;28;21157;-63
2023/09/01 07:05:41;;;;;;;7.83;5.17;;;16.10;99.90;;;;;;4990603;28;20448;-63
2023/09/01 07:08:13;;;;;;;5.93;5.20;;;16.20;99.90;;;;;;4989992;28;20570;-63
2023/09/01 07:10:40;;;;;;;5.93;5.53;;;16.20;99.90;;;;;;4990550;28;20456;-63
2023/09/01 07:13:10;;;;;;;6.80;6.10;;;16.30;99.90;;;;;;4990344;28;20451;-63
2023/09/01 07:15:36;;;;;;;7.20;6.50;;;16.30;99.90;;;;;;4990218;28;20455;-63
2023/09/01 07:18:04;;;;;;;8.07;5.33;;;16.30;99.90;;;;;;4989588;28;20473;-63
2023/09/01 07:20:31;;;;;;;10.37;6.40;;;16.30;99.90;;;;;;4990334;28;20456;-63
2023/09/01 07:22:59;;;;;;;8.33;6.67;;;16.30;99.90;;;;;;4989789;28;21008;-63
2023/09/01 07:25:26;;;;;;;6.70;6.20;;;16.40;99.90;;;;;;4990067;28;20454;-63
2023/09/01 07:27:52;;;;;;;6.77;6.13;;;16.40;99.90;;;;;;4989075;28;20475;-63
2023/09/01 07:30:19;;;;;;;7.33;6.73;;;16.50;99.90;;;;;;4989658;28;20456;-63
2023/09/01 07:32:46;;;;;;;6.17;5.60;;;16.60;99.90;;;;;;4988645;28;20948;-63
2023/09/01 07:35:13;;;;;;;7.07;6.20;;;16.60;99.90;;;;;;4989848;28;20458;-63
2023/09/01 07:37:40;;;;;;;6.07;5.67;;;16.60;99.90;;;;;;4988907;28;20477;-63
2023/09/01 07:40:09;;;;;;;7.03;6.23;;;16.60;99.90;;;;;;4989778;28;20464;-63
2023/09/01 07:42:36;;;;;;;6.40;5.97;;;16.70;99.90;;;;;;4989650;28;20571;-63
2023/09/01 07:45:03;;;;;;;7.13;6.50;;;16.70;99.90;;;;;;4989908;28;20453;-63
2023/09/01 07:47:29;;;;;;;18.43;10.77;;;16.70;99.90;;;;;;4988257;28;20582;-63
2023/09/01 07:49:56;;;;;;;15.90;9.43;;;16.80;99.90;;;;;;4989330;28;20463;-63
2023/09/01 07:52:23;;;;;;;10.67;8.00;;;16.80;99.90;;;;;;4989483;28;20544;-63
2023/09/01 07:54:50;;;;;;;12.10;8.30;;;16.80;99.90;;;;;;4989394;28;20455;-63
2023/09/01 07:57:18;;;;;;;7.30;6.60;;;16.80;99.90;;;;;;4988418;28;20484;-63
2023/09/01 07:59:45;;;;;;;8.83;7.77;;;16.80;99.90;;;;;;4989410;28;20571;-63
2023/09/01 08:02:12;;;;;;;7.97;7.27;;;16.80;99.90;;;;;;4989297;28;20480;-62
2023/09/01 08:04:39;;;;;;;8.10;7.30;;;16.80;99.90;;;;;;4989358;28;20530;-63
2023/09/01 08:07:06;;;;;;;9.23;8.40;;;16.90;99.90;;;;;;4988334;28;20486;-63
2023/09/01 08:09:32;;;;;;;7.90;6.30;;;16.90;99.90;;;;;;4989307;28;20486;-63
2023/09/01 08:11:59;;;;;;;6.37;5.77;;;16.90;99.90;;;;;;4989468;28;20452;-63
2023/09/01 08:14:27;;;;;;;8.40;7.67;;;17.00;99.90;;;;;;4986202;28;20530;-63
2023/09/01 08:16:54;;;;;;;8.60;7.73;;;17.10;99.90;;;;;;4987683;28;20457;-63
2023/09/01 08:19:21;;;;;;;8.73;7.90;;;17.10;99.90;;;;;;4988640;28;20449;-63
2023/09/01 08:21:48;;;;;;;19.33;9.77;;;17.10;99.90;;;;;;4988564;28;20485;-63
2023/09/01 08:24:14;;;;;;;8.67;7.17;;;17.20;99.90;;;;;;4988548;28;21038;-63
2023/09/01 08:26:41;;;;;;;8.83;7.53;;;17.20;99.90;;;;;;4987524;28;20457;-63
2023/09/01 08:29:08;;;;;;;9.80;8.80;;;17.20;99.90;;;;;;4988371;28;20458;-63
2023/09/01 08:31:36;;;;;;;7.97;7.17;;;17.30;99.90;;;;;;4988542;28;20492;-63
2023/09/01 08:34:04;;;;;;;7.83;7.10;;;17.30;99.90;;;;;;4986767;28;20479;-63
2023/09/01 08:36:30;;;;;;;7.57;6.80;;;17.40;99.90;;;;;;4987982;28;20463;-63
2023/09/01 08:38:57;;;;;;;10.50;7.40;;;17.40;99.90;;;;;;4989429;28;21018;-63
2023/09/01 08:41:25;;;;;;;7.43;6.73;;;17.40;99.90;;;;;;4991849;28;20445;-63
2023/09/01 08:43:56;;;;;;;5.80;5.40;;;17.50;99.90;;;;;;4999976;28;20457;-63
2023/09/01 08:46:24;;;;;;;7.30;6.70;;;17.50;99.90;;;;;;4998912;28;20539;-63
2023/09/01 08:48:53;;;;;;;17.70;8.90;;;17.60;99.90;;;;;;4991972;28;20563;-63
2023/09/01 08:51:21;;;;;;;11.67;8.13;;;17.70;99.90;;;;;;5004350;28;20452;-63
2023/09/01 08:53:48;;;;;;;8.50;5.57;;;17.80;99.90;;;;;;4995304;28;21002;-63
2023/09/01 08:56:15;;;;;;;5.50;4.87;;;17.90;99.90;;;;;;4995660;28;20454;-63
2023/09/01 08:58:44;;;;;;;16.90;8.00;;;17.90;99.90;;;;;;5002389;28;20479;-63
2023/09/01 09:01:13;;;;;;;5.17;4.53;;;18.10;99.90;;;;;;4994394;28;20458;-63
2023/09/01 09:03:40;;;;;;;14.00;6.17;;;18.10;99.90;;;;;;5005360;28;20497;-63
2023/09/01 09:06:12;;;;;;;3.80;3.40;;;18.20;99.90;;;;;;5000532;28;20943;-63
2023/09/01 09:08:39;;;;;;;3.50;3.20;;;18.20;99.90;;;;;;5005447;28;20544;-63
2023/09/01 09:11:13;;;;;;;19.27;8.40;;;18.20;99.90;;;;;;4994673;28;20519;-63
2023/09/01 09:13:41;;;;;;;19.97;7.57;;;18.20;99.90;;;;;;5004143;28;20454;-63
2023/09/01 09:16:11;;;;;;;5.43;4.90;;;18.10;99.90;;;;;;5000080;28;20985;-63
2023/09/01 09:18:40;;;;;;;5.20;4.70;;;18.10;99.90;;;;;;4997170;28;20476;-63
2023/09/01 09:21:24;;;;;;;4.50;4.20;;;18.10;99.90;;;;;;5007900;28;20459;-63
2023/09/01 09:23:51;;;;;;;5.90;4.70;;;18.00;99.90;;;;;;4998916;28;20514;-63
2023/09/01 09:26:25;;;;;;;4.70;4.40;;;18.00;99.90;;;;;;4998962;28;20536;-63
2023/09/01 09:28:52;;;;;;;5.23;4.63;;;18.00;99.90;;;;;;5007383;28;20468;-63
2023/09/01 09:31:19;;;;;;;5.13;4.73;;;18.00;99.90;;;;;;4994864;28;20543;-63
2023/09/01 09:33:46;;;;;;;5.50;4.87;;;18.00;99.90;;;;;;5002588;28;20829;-63
2023/09/01 09:36:13;;;;;;;5.17;4.63;;;18.00;99.90;;;;;;5000718;28;20541;-63
2023/09/01 09:38:42;;;;;;;4.63;4.20;;;18.00;99.90;;;;;;4997041;28;20469;-63
2023/09/01 09:41:09;;;;;;;4.93;4.63;;;18.00;99.90;;;;;;5007207;28;20540;-63
2023/09/01 09:43:46;;;;;;;5.47;5.03;;;18.10;99.90;;;;;;4996260;28;20497;-63
2023/09/01 09:46:13;;;;;;;12.03;8.27;;;18.10;99.90;;;;;;4999137;28;20462;-63
2023/09/01 09:48:41;;;;;;;5.43;4.90;;;18.20;99.90;;;;;;5026871;22;20500;-63
2023/09/01 09:51:10;;;;;;;6.40;4.70;;;18.20;99.90;;;;;;5026870;28;20527;-62
2023/09/01 09:53:38;;;;;;;5.17;4.67;;;18.20;99.90;;;;;;5016080;28;20572;-62
2023/09/01 09:56:30;;;;;;;5.33;4.87;;;18.30;99.90;;;;;;5019740;28;20455;-62
2023/09/01 09:59:02;;;;;;;5.57;5.10;;;18.40;99.90;;;;;;5026781;28;20468;-62
2023/09/01 10:01:32;;;;;;;5.07;4.77;;;18.40;99.90;;;;;;5015235;28;20587;-63
2023/09/01 10:03:59;;;;;;;6.30;5.70;;;18.40;99.90;;;;;;5021452;28;20495;-62
2023/09/01 10:06:26;;;;;;;6.90;6.20;;;18.50;99.90;;;;;;5021584;28;20536;-62
2023/09/01 10:08:54;;;;;;;15.33;5.97;;;18.50;99.90;;;;;;5013748;28;20477;-62
2023/09/01 10:11:23;;;;;;;6.13;4.83;;;18.50;99.90;;;;;;4996846;28;20457;-63
2023/09/01 10:13:50;;;;;;;4.10;3.63;;;18.60;99.90;;;;;;5022733;28;21197;-62
2023/09/01 10:16:18;;;;;;;5.70;5.20;;;18.60;99.90;;;;;;5020236;28;20903;-62
2023/09/01 10:18:47;;;;;;;6.33;5.60;;;18.60;99.90;;;;;;5014675;28;20477;-63
2023/09/01 10:21:14;;;;;;;6.67;5.93;;;18.60;99.90;;;;;;5026287;28;20455;-62
2023/09/01 10:23:41;;;;;;;18.93;11.00;;;18.70;99.90;;;;;;5016306;28;20955;-63
2023/09/01 10:26:24;;;;;;;19.47;8.90;;;18.70;99.90;;;;;;5019151;28;20880;-62
2023/09/01 10:28:56;;;;;;;14.30;7.90;;;18.70;99.90;;;;;;5025811;28;20495;-63
2023/09/01 10:31:23;;;;;;;8.43;6.13;;;18.80;99.90;;;;;;4997665;28;20451;-62
2023/09/01 10:34:07;;;;;;;14.10;8.23;;;18.80;99.90;;;;;;5020615;28;20949;-63
2023/09/01 10:36:34;;;;;;;6.70;5.23;;;18.80;99.90;;;;;;5022794;28;20882;-62
2023/09/01 10:39:30;;;;;;;5.77;5.37;;;18.80;99.90;;;;;;5013087;28;20544;-63
2023/09/01 10:42:02;;;;;;;8.40;7.47;;;18.90;99.90;;;;;;5021087;28;20453;-63
2023/09/01 10:45:12;;;;;;;6.40;5.90;;;19.00;99.90;;;;;;5022322;28;20448;-63
2023/09/01 10:47:46;;;;;;;5.83;5.43;;;19.00;99.90;;;;;;4980756;28;20491;-62
2023/09/01 10:50:13;;;;;;;6.87;6.17;;;19.00;99.90;;;;;;5018775;28;20449;-63
2023/09/01 10:52:42;;;;;;;6.63;6.13;;;19.00;99.90;;;;;;5023651;28;20449;-62
2023/09/01 10:55:09;;;;;;;5.90;5.40;;;19.00;99.90;;;;;;5012405;28;20454;-62
2023/09/01 10:57:41;;;;;;;6.53;5.90;;;19.10;99.90;;;;;;5022856;28;20532;-63
2023/09/01 11:00:28;;;;;;;5.70;5.33;;;19.10;99.90;;;;;;5019512;28;20835;-63
2023/09/01 11:03:30;;;;;;;6.53;6.03;;;19.10;99.90;;;;;;5012640;28;20604;-62
2023/09/01 11:05:58;;;;;;;6.57;5.97;;;19.20;99.90;;;;;;5005473;28;20454;-62
2023/09/01 11:08:25;;;;;;;16.00;9.30;;;19.30;99.90;;;;;;5016556;28;20576;-62
2023/09/01 11:10:55;;;;;;;16.60;9.60;;;19.30;99.90;;;;;;5024909;28;20449;-62
2023/09/01 11:13:24;;;;;;;10.50;8.60;;;19.40;99.90;;;;;;5004769;28;20504;-63
2023/09/01 11:15:51;;;;;;;5.90;5.50;;;19.50;99.90;;;;;;5019166;28;20957;-62
2023/09/01 11:18:22;;;;;;;5.83;5.43;;;19.50;99.90;;;;;;5013383;28;20889;-63
2023/09/01 11:20:52;;;;;;;6.23;5.73;;;19.60;99.90;;;;;;5025489;28;20978;-63
2023/09/01 11:23:20;;;;;;;6.33;5.80;;;19.60;99.90;;;;;;5015000;28;20580;-62
2023/09/01 11:25:48;;;;;;;6.57;6.00;;;19.70;99.90;;;;;;5017595;28;20453;-62
2023/09/01 11:28:15;;;;;;;6.37;5.97;;;19.70;99.90;;;;;;5022672;28;21286;-62
2023/09/01 11:30:53;;;;;;;7.67;7.17;;;19.70;99.90;;;;;;5011953;28;20481;-63
2023/09/01 11:33:22;;;;;;;5.97;5.57;;;19.90;99.90;;;;;;5020079;28;20437;-63
2023/09/01 11:35:49;;;;;;;5.43;5.10;;;20.00;99.90;;;;;;5019207;28;20548;-63
2023/09/01 11:38:20;;;;;;;6.10;5.80;;;20.10;99.90;;;;;;5012645;28;21293;-63
2023/09/01 11:40:48;;;;;;;5.37;4.87;;;20.20;99.90;;;;;;5024544;28;20503;-62
2023/09/01 11:43:15;;;;;;;5.57;5.17;;;20.30;99.90;;;;;;5005402;28;20482;-63
2023/09/01 11:45:46;;;;;;;4.50;4.20;;;20.30;99.90;;;;;;5004121;28;20532;-63
2023/09/01 11:48:13;;;;;;;4.33;4.07;;;20.30;99.90;;;;;;5003629;28;20561;-63
2023/09/01 11:50:45;;;;;;;4.53;4.33;;;20.30;99.90;;;;;;5023092;28;20462;-63
2023/09/01 11:53:23;;;;;;;5.17;4.87;;;20.30;99.90;;;;;;5007761;28;20442;-63
2023/09/01 11:55:50;;;;;;;5.30;4.90;;;20.30;99.90;;;;;;5017072;28;20449;-63
2023/09/01 11:58:17;;;;;;;4.83;4.53;;;20.40;99.90;;;;;;5016093;28;20557;-63
2023/09/01 12:00:44;;;;;;;4.23;3.93;;;20.40;99.90;;;;;;5012617;28;20453;-63
2023/09/01 12:03:12;;;;;;;10.20;4.07;;;20.50;99.90;;;;;;5022265;28;21052;-62
2023/09/01 12:05:40;;;;;;;4.77;4.57;;;20.50;99.90;;;;;;5012456;28;20446;-63
2023/09/01 12:08:10;;;;;;;4.10;3.90;;;20.50;99.90;;;;;;5021036;28;20471;-63
2023/09/01 12:10:37;;;;;;;3.77;3.57;;;20.50;99.90;;;;;;5011791;28;20447;-63
2023/09/01 12:13:09;;;;;;;3.50;3.20;;;20.50;99.90;;;;;;5023351;28;20445;-63
2023/09/01 12:15:56;;;;;;;3.37;3.07;;;20.40;99.90;;;;;;5013785;28;20569;-63
2023/09/01 12:18:38;;;;;;;6.37;4.53;;;20.40;99.90;;;;;;5018950;28;20472;-62
2023/09/01 12:21:06;;;;;;;5.07;4.67;;;20.30;99.90;;;;;;4998185;28;20513;-62
2023/09/01 12:23:36;;;;;;;4.10;3.90;;;20.20;99.90;;;;;;5024818;28;20487;-62
2023/09/01 12:26:03;;;;;;;4.13;3.63;;;20.20;99.90;;;;;;5011187;28;20528;-62
2023/09/01 12:28:32;;;;;;;4.23;3.93;;;20.10;99.90;;;;;;5005230;28;20704;-63
2023/09/01 12:31:01;;;;;;;9.20;7.53;;;20.00;99.90;;;;;;4999558;28;20443;-62
2023/09/01 12:33:28;;;;;;;4.70;4.30;;;19.90;99.90;;;;;;5018277;28;20456;-62
2023/09/01 12:35:55;;;;;;;4.20;3.90;;;19.80;99.90;;;;;;5022736;28;20892;-62
2023/09/01 12:38:22;;;;;;;6.60;5.30;;;19.80;99.90;;;;;;5015973;28;20491;-63
2023/09/01 12:40:50;;;;;;;5.43;5.03;;;19.70;99.90;;;;;;5027992;28;20451;-62
2023/09/01 12:43:17;;;;;;;5.70;4.23;;;19.70;99.90;;;;;;5018143;28;20567;-62
2023/09/01 12:45:44;;;;;;;3.70;3.40;;;19.60;99.90;;;;;;5020999;28;20449;-62
2023/09/01 12:48:12;;;;;;;4.40;4.10;;;19.50;99.90;;;;;;5024650;28;20565;-62
2023/09/01 12:50:39;;;;;;;5.30;3.90;;;19.40;99.90;;;;;;5015113;28;20540;-62
2023/09/01 12:53:06;;;;;;;5.50;3.43;;;19.30;99.90;;;;;;5026614;28;20420;-62